createdAt,value
2019-01-25T00:01:00.874Z,9.10
2019-01-25T00:03:30.679Z,9.10
2019-01-25T00:06:00.485Z,9.20
2019-01-25T00:08:30.303Z,9.10
2019-01-25T00:11:00.468Z,9.10
2019-01-25T00:13:30.270Z,9.10
2019-01-25T00:16:00.020Z,9.10
2019-01-25T00:18:29.832Z,9.10
2019-01-25T00:20:59.624Z,9.10
2019-01-25T00:23:29.420Z,9.10
2019-01-25T00:25:59.158Z,9.10
2019-01-25T00:28:28.939Z,9.10
2019-01-25T00:30:58.700Z,9.10
2019-01-25T00:33:28.368Z,9.10
2019-01-25T00:35:58.213Z,9.10
2019-01-25T00:38:28.127Z,9.10
2019-01-25T00:40:58.074Z,9.10
2019-01-25T00:43:27.784Z,9.10
2019-01-25T00:45:57.525Z,9.10
2019-01-25T00:48:27.301Z,9.10
2019-01-25T00:50:57.020Z,9.10
2019-01-25T00:53:27.175Z,9.10
2019-01-25T00:55:57.191Z,9.10
2019-01-25T00:58:27.007Z,9.10
2019-01-25T01:00:56.783Z,9.10
2019-01-25T01:03:26.624Z,9.10
2019-01-25T01:05:56.420Z,9.10
2019-01-25T01:08:26.215Z,9.10
2019-01-25T01:10:55.938Z,9.10
2019-01-25T01:13:25.720Z,9.10
2019-01-25T01:15:55.554Z,9.10
2019-01-25T01:18:25.712Z,9.10
2019-01-25T01:20:55.480Z,9.10
2019-01-25T01:23:25.288Z,9.10
2019-01-25T01:25:55.000Z,9.10
2019-01-25T01:28:25.054Z,9.10
2019-01-25T01:30:54.777Z,9.10
2019-01-25T01:33:24.548Z,9.10
2019-01-25T01:35:54.283Z,9.10
2019-01-25T01:38:24.066Z,9.10
2019-01-25T01:40:53.818Z,9.10
2019-01-25T01:43:23.509Z,9.10
2019-01-25T01:45:53.333Z,9.10
2019-01-25T01:48:23.030Z,9.10
2019-01-25T01:50:52.734Z,9.10
2019-01-25T01:53:22.470Z,9.10
2019-01-25T01:55:52.215Z,9.10
2019-01-25T01:58:22.184Z,9.10
2019-01-25T02:00:51.979Z,9.10
2019-01-25T02:03:21.759Z,9.10
2019-01-25T02:05:51.564Z,9.10
2019-01-25T02:08:21.310Z,9.10
2019-01-25T02:10:51.033Z,9.10
2019-01-25T02:13:20.765Z,9.10
2019-01-25T02:15:50.871Z,9.10
2019-01-25T02:18:20.567Z,9.10
2019-01-25T02:20:50.401Z,9.10
2019-01-25T02:23:20.100Z,9.10
2019-01-25T02:25:49.906Z,9.10
2019-01-25T02:28:20.024Z,9.10
2019-01-25T02:30:49.847Z,9.10
2019-01-25T02:33:19.619Z,9.10
2019-01-25T02:35:49.429Z,9.10
2019-01-25T02:38:19.140Z,9.10
2019-01-25T02:40:48.757Z,9.10
2019-01-25T02:43:18.417Z,9.10
2019-01-25T02:45:48.400Z,9.10
2019-01-25T02:48:18.195Z,9.10
2019-01-25T02:50:48.132Z,9.10
2019-01-25T02:53:17.969Z,9.10
2019-01-25T02:55:47.676Z,9.10
2019-01-25T02:58:17.406Z,9.10
2019-01-25T03:00:47.131Z,9.20
2019-01-25T03:03:16.858Z,9.20
2019-01-25T03:05:46.684Z,9.20
2019-01-25T03:08:16.402Z,9.10
2019-01-25T03:10:47.228Z,9.20
2019-01-25T03:13:17.464Z,9.20
2019-01-25T03:15:47.687Z,9.20
2019-01-25T03:18:17.706Z,9.20
2019-01-25T03:20:47.478Z,9.20
2019-01-25T03:23:17.522Z,9.20
2019-01-25T03:25:47.331Z,9.20
2019-01-25T03:28:17.358Z,9.20
2019-01-25T03:30:47.169Z,9.20
2019-01-25T03:33:16.889Z,9.20
2019-01-25T03:35:46.682Z,9.20
2019-01-25T03:38:16.478Z,9.20
2019-01-25T03:40:46.281Z,9.20
2019-01-25T03:43:15.939Z,9.20
2019-01-25T03:45:46.040Z,9.20
2019-01-25T03:48:15.811Z,9.20
2019-01-25T03:50:45.561Z,9.20
2019-01-25T03:53:15.210Z,9.20
2019-01-25T03:55:44.933Z,9.20
2019-01-25T03:58:14.716Z,9.20
2019-01-25T04:00:44.543Z,9.20
2019-01-25T04:03:14.275Z,9.20
2019-01-25T04:05:44.009Z,9.20
2019-01-25T04:08:13.647Z,9.20
2019-01-25T04:10:43.747Z,9.20
2019-01-25T04:13:13.507Z,9.20
2019-01-25T04:15:43.359Z,9.20
2019-01-25T04:18:13.117Z,9.20
2019-01-25T04:20:43.206Z,9.20
2019-01-25T04:23:13.021Z,9.20
2019-01-25T04:25:45.329Z,9.20
2019-01-25T04:28:14.064Z,9.20
2019-01-25T04:30:43.837Z,9.20
2019-01-25T04:33:13.488Z,9.20
2019-01-25T04:35:43.173Z,9.20
2019-01-25T04:38:12.820Z,9.20
2019-01-25T04:40:42.936Z,9.20
2019-01-25T04:43:12.630Z,9.20
2019-01-25T04:45:42.325Z,9.20
2019-01-25T04:48:13.886Z,9.20
2019-01-25T04:50:43.604Z,9.20
2019-01-25T04:53:13.347Z,9.20
2019-01-25T04:55:43.077Z,9.20
2019-01-25T04:58:14.766Z,9.20
2019-01-25T05:00:44.575Z,9.20
2019-01-25T05:03:14.963Z,9.20
2019-01-25T05:05:45.443Z,9.20
2019-01-25T05:08:17.118Z,9.20
2019-01-25T05:10:46.889Z,9.20
2019-01-25T05:13:16.609Z,9.20
2019-01-25T05:15:46.354Z,9.20
2019-01-25T05:18:16.030Z,9.20
2019-01-25T05:20:45.826Z,9.20
2019-01-25T05:23:15.463Z,9.20
2019-01-25T05:25:45.165Z,9.20
2019-01-25T05:28:16.631Z,9.20
2019-01-25T05:30:51.577Z,9.20
2019-01-25T05:33:21.355Z,9.20
2019-01-25T05:35:51.091Z,9.20
2019-01-25T05:38:20.817Z,9.20
2019-01-25T05:40:50.564Z,9.20
2019-01-25T05:43:20.366Z,9.20
2019-01-25T05:45:50.429Z,9.20
2019-01-25T05:48:21.716Z,9.20
2019-01-25T05:50:53.120Z,9.20
2019-01-25T05:53:22.827Z,9.30
2019-01-25T05:55:52.619Z,9.20
2019-01-25T05:58:22.247Z,9.20
2019-01-25T06:00:52.014Z,9.30
2019-01-25T06:03:21.802Z,9.20
2019-01-25T06:05:56.089Z,9.20
2019-01-25T06:08:30.377Z,9.20
2019-01-25T06:11:02.031Z,9.20
2019-01-25T06:13:32.093Z,9.20
2019-01-25T06:16:01.917Z,9.20
2019-01-25T06:18:31.671Z,9.20
2019-01-25T06:21:01.657Z,9.20
2019-01-25T06:23:31.479Z,9.20
2019-01-25T06:26:01.370Z,9.20
2019-01-25T06:28:31.148Z,9.20
2019-01-25T06:31:00.919Z,9.20
2019-01-25T06:33:30.880Z,9.20
2019-01-25T06:36:01.700Z,9.20
2019-01-25T06:38:31.399Z,9.20
2019-01-25T06:41:01.246Z,9.20
2019-01-25T06:43:31.358Z,9.20
2019-01-25T06:46:01.173Z,9.20
2019-01-25T06:48:31.193Z,9.30
2019-01-25T06:51:00.899Z,9.30
2019-01-25T06:53:30.601Z,9.30
2019-01-25T06:56:00.444Z,9.30
2019-01-25T06:58:43.882Z,9.30
2019-01-25T07:01:24.234Z,9.30
2019-01-25T07:03:54.004Z,9.20
2019-01-25T07:06:27.434Z,9.30
2019-01-25T07:08:56.563Z,9.30
2019-01-25T07:11:28.907Z,9.20
2019-01-25T07:13:58.910Z,9.30
2019-01-25T07:16:28.664Z,9.30
2019-01-25T07:18:58.316Z,9.30
2019-01-25T07:21:28.446Z,9.30
2019-01-25T07:23:58.146Z,9.30
2019-01-25T07:26:27.855Z,9.30
2019-01-25T07:28:59.435Z,9.30
2019-01-25T07:31:29.428Z,9.30
2019-01-25T07:33:59.309Z,9.30
2019-01-25T07:36:29.246Z,9.30
2019-01-25T07:38:58.895Z,9.30
2019-01-25T07:41:29.015Z,9.40
2019-01-25T07:43:58.706Z,9.40
2019-01-25T07:46:28.438Z,9.40
2019-01-25T07:49:00.786Z,9.40
2019-01-25T07:51:30.794Z,9.40
2019-01-25T07:54:00.694Z,9.40
2019-01-25T07:56:30.318Z,9.40
2019-01-25T07:59:01.961Z,9.40
2019-01-25T08:01:32.489Z,9.40
2019-01-25T08:04:02.218Z,9.40
2019-01-25T08:06:31.929Z,9.40
2019-01-25T08:09:01.750Z,9.40
2019-01-25T08:11:32.818Z,9.40
2019-01-25T08:14:02.556Z,9.40
2019-01-25T08:16:32.292Z,9.40
2019-01-25T08:19:02.124Z,9.40
2019-01-25T08:21:32.019Z,9.40
2019-01-25T08:24:01.765Z,9.40
2019-01-25T08:26:31.855Z,9.40
2019-01-25T08:29:01.666Z,9.40
2019-01-25T08:31:31.431Z,9.40
2019-01-25T08:34:01.077Z,9.40
2019-01-25T08:36:30.888Z,9.40
2019-01-25T08:39:00.645Z,9.40
2019-01-25T08:41:30.332Z,9.40
2019-01-25T08:43:59.977Z,9.50
2019-01-25T08:46:29.593Z,9.50
2019-01-25T08:48:59.432Z,9.50
2019-01-25T08:51:29.188Z,9.50
2019-01-25T08:53:58.884Z,9.50
2019-01-25T08:56:28.590Z,9.50
2019-01-25T08:58:58.928Z,9.50
2019-01-25T09:01:28.871Z,9.50
2019-01-25T09:03:58.502Z,9.50
2019-01-25T09:06:28.169Z,9.50
2019-01-25T09:08:57.785Z,9.50
2019-01-25T09:11:27.745Z,9.50
2019-01-25T09:13:57.772Z,9.50
2019-01-25T09:16:27.438Z,9.50
2019-01-25T09:18:57.137Z,9.50
2019-01-25T09:21:26.878Z,9.50
2019-01-25T09:23:56.600Z,9.60
2019-01-25T09:26:26.302Z,9.60
2019-01-25T09:28:56.057Z,9.60
2019-01-25T09:31:25.665Z,9.70
2019-01-25T09:33:55.302Z,9.90
2019-01-25T09:36:25.024Z,10.20
2019-01-25T09:38:54.698Z,10.50
2019-01-25T09:41:24.885Z,10.70
2019-01-25T09:43:54.577Z,10.70
2019-01-25T09:46:24.274Z,10.70
2019-01-25T09:48:53.917Z,10.70
2019-01-25T09:51:23.585Z,10.60
2019-01-25T09:53:53.290Z,10.60
2019-01-25T09:56:22.898Z,10.50
2019-01-25T09:58:52.643Z,10.50
2019-01-25T10:01:22.384Z,10.50
2019-01-25T10:03:52.111Z,10.40
2019-01-25T10:06:22.183Z,10.40
2019-01-25T10:08:51.973Z,10.40
2019-01-25T10:11:22.007Z,10.50
2019-01-25T10:13:51.699Z,10.50
2019-01-25T10:16:21.768Z,10.50
2019-01-25T10:18:51.879Z,10.60
2019-01-25T10:21:21.712Z,10.70
2019-01-25T10:23:51.545Z,10.80
2019-01-25T10:26:21.213Z,11.00
2019-01-25T10:28:50.938Z,11.10
2019-01-25T10:31:20.758Z,11.40
2019-01-25T10:33:50.835Z,11.80
2019-01-25T10:36:20.658Z,12.30
2019-01-25T10:38:50.353Z,12.80
2019-01-25T10:41:20.373Z,13.30
2019-01-25T10:43:50.605Z,13.70
2019-01-25T10:46:20.403Z,14.20
2019-01-25T10:48:50.067Z,14.50
2019-01-25T10:51:19.694Z,14.90
2019-01-25T10:53:49.480Z,15.30
2019-01-25T10:56:19.253Z,15.60
2019-01-25T10:58:48.864Z,15.90
2019-01-25T11:01:18.595Z,16.00
2019-01-25T11:03:48.365Z,16.00
2019-01-25T11:06:18.489Z,16.00
2019-01-25T11:08:48.251Z,16.00
2019-01-25T11:11:18.025Z,16.00
2019-01-25T11:13:47.725Z,16.00
2019-01-25T11:16:17.473Z,16.20
2019-01-25T11:18:47.243Z,16.40
2019-01-25T11:21:17.202Z,16.50
2019-01-25T11:23:47.386Z,16.50
2019-01-25T11:26:17.182Z,16.50
2019-01-25T11:28:47.017Z,16.40
2019-01-25T11:31:16.724Z,16.20
2019-01-25T11:33:46.558Z,16.10
2019-01-25T11:36:16.337Z,16.00
2019-01-25T11:38:46.091Z,15.90
2019-01-25T11:41:15.803Z,15.90
2019-01-25T11:43:45.552Z,15.80
2019-01-25T11:46:15.445Z,15.80
2019-01-25T11:48:45.237Z,15.70
2019-01-25T11:51:15.020Z,15.60
2019-01-25T11:53:44.714Z,15.50
2019-01-25T11:56:14.943Z,15.30
2019-01-25T11:58:44.630Z,15.20
2019-01-25T12:01:14.408Z,15.10
2019-01-25T12:03:44.058Z,15.00
2019-01-25T12:06:13.770Z,14.90
2019-01-25T12:08:43.802Z,14.80
2019-01-25T12:11:13.659Z,14.70
2019-01-25T12:13:43.439Z,14.60
2019-01-25T12:16:13.275Z,14.50
2019-01-25T12:18:43.168Z,14.40
2019-01-25T12:21:12.895Z,14.30
2019-01-25T12:23:42.667Z,14.20
2019-01-25T12:26:12.359Z,14.10
2019-01-25T12:28:42.288Z,14.00
2019-01-25T12:31:12.310Z,13.90
2019-01-25T12:33:41.993Z,13.80
2019-01-25T12:36:12.029Z,13.70
2019-01-25T12:38:41.725Z,13.60
2019-01-25T12:41:11.536Z,13.50
2019-01-25T12:43:41.578Z,13.40
2019-01-25T12:46:11.284Z,13.40
2019-01-25T12:48:40.904Z,13.30
2019-01-25T12:51:14.135Z,13.30
2019-01-25T12:53:43.869Z,13.30
2019-01-25T12:56:13.559Z,13.30
2019-01-25T12:58:43.296Z,13.30
2019-01-25T13:01:13.056Z,13.30
2019-01-25T13:03:42.795Z,13.40
2019-01-25T13:06:12.665Z,13.40
2019-01-25T13:08:42.354Z,13.40
2019-01-25T13:11:12.105Z,13.40
2019-01-25T13:13:41.808Z,13.40
2019-01-25T13:16:11.615Z,13.40
2019-01-25T13:18:41.323Z,13.40
2019-01-25T13:21:11.096Z,13.40
2019-01-25T13:23:41.122Z,13.40
2019-01-25T13:26:11.251Z,13.30
2019-01-25T13:28:41.866Z,13.30
2019-01-25T13:31:11.899Z,13.30
2019-01-25T13:33:41.721Z,13.30
2019-01-25T13:36:12.822Z,13.30
2019-01-25T13:38:42.516Z,13.20
2019-01-25T13:41:12.311Z,13.20
2019-01-25T13:43:42.027Z,13.20
2019-01-25T13:46:12.015Z,13.20
2019-01-25T13:48:41.778Z,13.10
2019-01-25T13:51:11.659Z,13.10
2019-01-25T13:53:41.400Z,13.00
2019-01-25T13:56:11.283Z,12.90
2019-01-25T13:58:40.910Z,12.90
2019-01-25T14:01:10.970Z,12.80
2019-01-25T14:03:41.119Z,12.70
2019-01-25T14:06:10.802Z,12.70
2019-01-25T14:08:40.550Z,12.60
2019-01-25T14:11:10.244Z,12.60
2019-01-25T14:13:46.637Z,12.50
2019-01-25T14:16:11.271Z,12.50
2019-01-25T14:18:44.904Z,12.40
2019-01-25T14:21:12.231Z,12.40
2019-01-25T14:23:42.029Z,12.30
2019-01-25T14:26:11.747Z,12.30
2019-01-25T14:28:41.554Z,12.30
2019-01-25T14:31:11.302Z,12.20
2019-01-25T14:33:40.919Z,12.20
2019-01-25T14:36:10.733Z,12.10
2019-01-25T14:38:40.706Z,12.10
2019-01-25T14:41:10.447Z,12.10
2019-01-25T14:43:40.077Z,12.00
2019-01-25T14:46:09.773Z,12.00
2019-01-25T14:48:39.397Z,12.00
2019-01-25T14:51:09.183Z,11.90
2019-01-25T14:53:38.890Z,11.90
2019-01-25T14:56:08.879Z,11.80
2019-01-25T14:58:38.690Z,11.80
2019-01-25T15:01:08.422Z,11.80
2019-01-25T15:03:38.528Z,11.70
2019-01-25T15:06:08.444Z,11.70
2019-01-25T15:08:38.437Z,11.60
2019-01-25T15:11:08.327Z,11.60
2019-01-25T15:13:38.327Z,11.60
2019-01-25T15:16:08.146Z,11.50
2019-01-25T15:18:37.956Z,11.50
2019-01-25T15:21:08.250Z,11.50
2019-01-25T15:23:38.195Z,11.50
2019-01-25T15:26:08.147Z,11.40
2019-01-25T15:28:38.018Z,11.40
2019-01-25T15:31:08.136Z,11.40
2019-01-25T15:33:38.163Z,11.40
2019-01-25T15:36:08.192Z,11.30
2019-01-25T15:38:38.247Z,11.30
2019-01-25T15:41:08.139Z,11.30
2019-01-25T15:43:38.041Z,11.20
2019-01-25T15:46:07.783Z,11.20
2019-01-25T15:48:38.810Z,11.20
2019-01-25T15:51:10.335Z,11.20
2019-01-25T15:53:40.273Z,11.20
2019-01-25T15:56:10.248Z,11.20
2019-01-25T15:58:40.160Z,11.10
2019-01-25T16:01:10.017Z,11.10
2019-01-25T16:03:39.827Z,11.10
2019-01-25T16:06:10.082Z,11.10
2019-01-25T16:08:40.041Z,11.10
2019-01-25T16:11:10.394Z,11.10
2019-01-25T16:13:40.345Z,11.00
2019-01-25T16:16:10.195Z,11.00
2019-01-25T16:18:40.115Z,11.00
2019-01-25T16:21:09.948Z,11.00
2019-01-25T16:23:39.914Z,11.00
2019-01-25T16:26:09.684Z,11.00
2019-01-25T16:28:39.647Z,11.00
2019-01-25T16:31:09.493Z,11.00
2019-01-25T16:33:39.334Z,11.00
2019-01-25T16:36:09.121Z,11.00
2019-01-25T16:38:38.930Z,11.00
2019-01-25T16:41:08.759Z,11.00
2019-01-25T16:43:38.636Z,11.00
2019-01-25T16:46:08.419Z,11.00
2019-01-25T16:48:38.635Z,10.90
2019-01-25T16:51:08.407Z,10.90
2019-01-25T16:53:38.228Z,10.90
2019-01-25T16:56:08.020Z,10.90
2019-01-25T16:58:37.928Z,10.90
2019-01-25T17:01:07.999Z,10.90
2019-01-25T17:03:38.011Z,10.90
2019-01-25T17:06:08.193Z,10.80
2019-01-25T17:08:38.114Z,10.80
2019-01-25T17:11:08.061Z,10.80
2019-01-25T17:13:38.082Z,10.80
2019-01-25T17:16:08.060Z,10.80
2019-01-25T17:18:37.841Z,10.80
2019-01-25T17:21:07.921Z,10.80
2019-01-25T17:23:37.857Z,10.70
2019-01-25T17:26:07.644Z,10.70
2019-01-25T17:28:37.443Z,10.70
2019-01-25T17:31:07.397Z,10.70
2019-01-25T17:33:37.336Z,10.70
2019-01-25T17:36:07.251Z,10.70
2019-01-25T17:38:37.272Z,10.70
2019-01-25T17:41:07.329Z,10.70
2019-01-25T17:43:37.436Z,10.70
2019-01-25T17:46:07.277Z,10.60
2019-01-25T17:48:37.217Z,10.70
2019-01-25T17:51:08.467Z,10.60
2019-01-25T17:53:39.982Z,10.60
2019-01-25T17:56:10.942Z,10.60
2019-01-25T17:58:40.856Z,10.60
2019-01-25T18:01:10.744Z,10.60
2019-01-25T18:03:40.435Z,10.60
2019-01-25T18:06:10.435Z,10.60
2019-01-25T18:08:40.301Z,10.60
2019-01-25T18:11:10.342Z,10.60
2019-01-25T18:13:40.326Z,10.90
2019-01-25T18:16:10.234Z,11.30
2019-01-25T18:18:40.073Z,11.60
2019-01-25T18:21:10.054Z,11.40
2019-01-25T18:23:39.851Z,11.10
2019-01-25T18:26:09.755Z,10.70
2019-01-25T18:28:41.492Z,10.40
2019-01-25T18:31:14.395Z,10.10
2019-01-25T18:33:44.380Z,10.00
2019-01-25T18:36:14.282Z,10.00
2019-01-25T18:38:45.049Z,10.10
2019-01-25T18:41:19.942Z,10.10
2019-01-25T18:43:55.688Z,10.10
2019-01-25T18:46:25.452Z,10.10
2019-01-25T18:48:58.550Z,10.20
2019-01-25T18:51:29.232Z,10.20
2019-01-25T18:53:59.154Z,10.20
2019-01-25T18:56:29.253Z,10.20
2019-01-25T18:58:59.209Z,10.20
2019-01-25T19:01:29.191Z,10.20
2019-01-25T19:03:59.919Z,10.20
2019-01-25T19:06:31.846Z,10.20
2019-01-25T19:09:01.786Z,10.20
2019-01-25T19:11:31.617Z,10.20
2019-01-25T19:14:01.509Z,10.20
2019-01-25T19:16:31.644Z,10.20
2019-01-25T19:19:01.372Z,10.20
2019-01-25T19:21:31.183Z,10.20
2019-01-25T19:24:00.974Z,10.20
2019-01-25T19:26:30.659Z,10.20
2019-01-25T19:29:00.409Z,10.20
2019-01-25T19:31:30.655Z,10.20
2019-01-25T19:34:00.502Z,10.20
2019-01-25T19:36:30.308Z,10.10
2019-01-25T19:38:59.943Z,10.20
2019-01-25T19:41:29.673Z,10.10
2019-01-25T19:43:59.310Z,10.10
2019-01-25T19:46:29.370Z,10.10
2019-01-25T19:48:59.028Z,10.10
2019-01-25T19:51:28.812Z,10.10
2019-01-25T19:53:58.530Z,10.10
2019-01-25T19:56:28.620Z,10.10
2019-01-25T19:58:58.307Z,10.10
2019-01-25T20:01:28.454Z,10.10
2019-01-25T20:03:58.165Z,10.10
2019-01-25T20:06:27.851Z,10.10
2019-01-25T20:08:57.629Z,10.00
2019-01-25T20:11:27.423Z,10.00
2019-01-25T20:13:57.244Z,10.00
2019-01-25T20:16:26.999Z,10.00
2019-01-25T20:18:56.739Z,10.00
2019-01-25T20:21:26.381Z,10.00
2019-01-25T20:23:56.457Z,10.00
2019-01-25T20:26:26.163Z,10.00
2019-01-25T20:28:56.089Z,10.10
2019-01-25T20:31:25.744Z,10.00
2019-01-25T20:33:55.800Z,10.00
2019-01-25T20:36:25.926Z,10.00
2019-01-25T20:38:55.694Z,10.00
2019-01-25T20:41:25.397Z,10.00
2019-01-25T20:43:55.129Z,10.00
2019-01-25T20:46:24.950Z,10.00
2019-01-25T20:48:54.996Z,10.00
2019-01-25T20:51:24.764Z,10.00
2019-01-25T20:53:54.458Z,10.00
2019-01-25T20:56:24.260Z,10.00
2019-01-25T20:58:53.873Z,10.00
2019-01-25T21:01:23.577Z,10.00
2019-01-25T21:03:53.287Z,9.90
2019-01-25T21:06:23.038Z,9.90
2019-01-25T21:08:52.751Z,9.90
2019-01-25T21:11:22.779Z,9.90
2019-01-25T21:13:52.606Z,9.90
2019-01-25T21:16:22.360Z,9.90
2019-01-25T21:18:51.999Z,9.90
2019-01-25T21:21:22.134Z,9.90
2019-01-25T21:23:51.860Z,9.90
2019-01-25T21:26:21.972Z,9.90
2019-01-25T21:28:51.582Z,9.90
2019-01-25T21:31:21.339Z,9.90
2019-01-25T21:33:51.082Z,9.90
2019-01-25T21:36:20.710Z,9.90
2019-01-25T21:38:50.442Z,9.90
2019-01-25T21:41:20.519Z,9.90
2019-01-25T21:43:50.540Z,9.90
2019-01-25T21:46:20.267Z,9.90
2019-01-25T21:48:49.898Z,9.90
2019-01-25T21:51:19.668Z,9.90
2019-01-25T21:53:49.283Z,9.90
2019-01-25T21:56:19.099Z,9.90
2019-01-25T21:58:48.721Z,9.90
2019-01-25T22:01:18.462Z,9.90
2019-01-25T22:03:48.233Z,9.90
2019-01-25T22:06:18.106Z,9.90
2019-01-25T22:08:48.133Z,9.90
2019-01-25T22:11:17.978Z,9.90
2019-01-25T22:13:52.747Z,9.90
2019-01-25T22:16:19.745Z,9.90
2019-01-25T22:18:49.750Z,9.90
2019-01-25T22:21:19.453Z,9.90
2019-01-25T22:23:49.149Z,9.90
2019-01-25T22:26:18.904Z,9.90
2019-01-25T22:28:51.215Z,9.90
2019-01-25T22:31:21.811Z,9.90
2019-01-25T22:33:51.805Z,9.90
2019-01-25T22:36:21.437Z,9.80
2019-01-25T22:38:51.207Z,9.90
2019-01-25T22:41:20.886Z,9.90
2019-01-25T22:43:50.615Z,9.80
2019-01-25T22:46:20.388Z,9.90
2019-01-25T22:48:50.151Z,9.80
2019-01-25T22:51:19.905Z,9.80
2019-01-25T22:53:49.618Z,9.80
2019-01-25T22:56:19.322Z,9.80
2019-01-25T22:58:49.042Z,9.80
2019-01-25T23:01:22.037Z,9.80
2019-01-25T23:04:00.895Z,9.80
2019-01-25T23:06:36.947Z,9.80
2019-01-25T23:09:15.980Z,9.80
2019-01-25T23:11:45.674Z,9.80
2019-01-25T23:14:15.437Z,9.70
2019-01-25T23:16:45.302Z,9.80
2019-01-25T23:19:15.056Z,9.80
2019-01-25T23:21:44.743Z,9.80
2019-01-25T23:24:14.509Z,9.80
2019-01-25T23:26:44.239Z,9.80
2019-01-25T23:29:13.979Z,9.80
2019-01-25T23:31:44.095Z,9.80
2019-01-25T23:34:13.835Z,9.80
2019-01-25T23:37:02.829Z,9.80
2019-01-25T23:39:32.531Z,9.80
2019-01-25T23:42:02.221Z,9.80
2019-01-25T23:44:32.014Z,9.70
2019-01-25T23:47:01.765Z,9.70
2019-01-25T23:49:31.531Z,9.70
2019-01-25T23:52:01.198Z,9.70
2019-01-25T23:54:30.840Z,9.70
2019-01-25T23:57:00.585Z,9.70
2019-01-25T23:59:30.323Z,9.70
